Terminal Aerodrome Forecast
Issued by NWS Sterling, VA

Current Version | Previous Version | Graphics & Text | Print | Product List | Glossary On
Versions: 1 2 3 4 5 6 7 8 9 10 11 12 13 14 15 16 17 18 19 20 21 22
231
FTUS41 KLWX 141733
TAFDCA
TAF
KDCA 141733Z 1418/1518 14006KT 3SM -RA OVC015
     FM142100 VRB03KT 1SM -RA BR OVC008
     FM150600 VRB03KT P6SM OVC008
     FM150900 34005KT P6SM BKN040
     FM151300 34007KT P6SM SCT200=

USA.gov is the U.S. government's official web portal to all federal, state and local government web resources and services.